KBVI

Beaver County Airport

Beaver Falls, Pennsylvania, USA
METAR KBVI 151847Z 27016G22KT 10SM CLR 07/M04 A2967
Observed Flight Rules
Feb-15 @ 18:47 UTC (33 minutes ago) Visual Flight Rules
Wind Visibility Clouds
270° at 16 knots
 Gusting to 22 knots
10 miles
  • Clear skies
Temperatures Readings
Current 7°C / 45°F
Dewpoint -4°C / 25°F
Humidity 46%
Altimeter 29.67" Hg
Pressure 1004.72 hPa
Elevation 382
METAR KBVI 151847Z 27016G22KT 10SM CLR 07/M04 A2967
Observed Flight Rules
Feb-15 @ 18:47 UTC
(33 minutes ago)
VFR
Wind Visibility
270° at 16 knots
 Gusting to 22 knots
10 miles
Clouds
  • Clear skies
Temperature Dewpoint
7°C / 45°F -4°C / 25°F
Humidity Altimeter Pressure
46% 29.67" Hg 1004.72 hPa